Th8 — LI3233 — position and weather

sailwx.info

Track history (hours):
 
Tides and Currents Weather Stations Pressure Air Temp Water Temp Dewpoint Dewpoint Depression Visibility Wind Speed Wind Dir Waves Ship Positions

Th8

Last reported at 2017-Sep-27 11:21 UTC. Time now 2017-Oct-22 22:54 UTC.
Position N 70°15' E 019°30'.
Warning: this ship's position is 25 days out of date.

Length 7 m.

Type: Fishing. MMSI: 258087570.

Date/timePositionNaut miles runAvg speedWind from/ knotsBaromVisibWave heightAir tempDewpointWater temp
2017-Sep-27 11:21N 70°15' E 019°30'0 0.0
2017-Sep-27 10:59N 70°15' E 019°30'0 0.0
2017-Sep-27 10:28N 70°15' E 019°30'0 0.0
2017-Sep-27 09:59N 70°15' E 019°30'0 0.0
2017-Sep-27 09:19N 70°15' E 019°30'0 0.0
2017-Sep-27 08:52N 70°15' E 019°30'0 0.0
2017-Sep-27 08:28N 70°15' E 019°30'0 0.0
2017-Sep-27 07:51N 70°15' E 019°30'0 0.0
2017-Sep-27 07:29N 70°15' E 019°30'0 0.0
2017-Sep-27 06:58N 70°15' E 019°30'0 0.0
2017-Sep-27 06:22N 70°15' E 019°30'0 0.0
2017-Sep-27 05:59N 70°15' E 019°30'0 0.0
2017-Sep-27 05:25N 70°15' E 019°30'0 0.0
2017-Sep-27 04:57N 70°15' E 019°30'0 0.0
2017-Sep-27 04:25N 70°15' E 019°30'0 0.0
2017-Sep-27 03:51N 70°15' E 019°30'0 0.0
2017-Sep-27 03:28N 70°15' E 019°30'0 0.0
2017-Sep-27 02:59N 70°15' E 019°30'0 0.0
2017-Sep-27 02:30N 70°15' E 019°30'0 0.0
2017-Sep-27 01:58N 70°15' E 019°30'0 0.0
2017-Sep-27 01:27N 70°15' E 019°30'0 0.0
2017-Sep-27 00:47N 70°15' E 019°30'0 0.0
2017-Sep-27 00:30N 70°15' E 019°30'0 0.0
2017-Sep-26 23:59N 70°15' E 019°30'0 0.0
2017-Sep-26 23:26N 70°15' E 019°30'0 0.0
2017-Sep-26 22:49N 70°15' E 019°30'0 0.0
2017-Sep-26 22:25N 70°15' E 019°30'0 0.0
2017-Sep-26 21:57N 70°15' E 019°30'0 0.0
2017-Sep-26 21:29N 70°15' E 019°30'0 0.0
2017-Sep-26 20:56N 70°15' E 019°30'0 0.0
2017-Sep-26 20:20N 70°15' E 019°30'0 0.0
2017-Sep-26 20:00N 70°15' E 019°30'0 0.0
2017-Sep-26 19:24N 70°15' E 019°30'0 0.0
2017-Sep-26 18:59N 70°15' E 019°30'0 0.0
2017-Sep-26 18:15N 70°15' E 019°30'0 0.0
2017-Sep-26 18:01N 70°15' E 019°30'0 0.0
2017-Sep-26 17:23N 70°15' E 019°30'0 0.0
2017-Sep-26 16:59N 70°15' E 019°30'0 0.0
2017-Sep-26 16:26N 70°15' E 019°30'0 0.0
2017-Sep-26 12:48N 70°15' E 019°30'0 0.4
2017-Sep-26 12:26N 70°15' E 019°30'2 5.5
2017-Sep-26 12:00N 70°17' E 019°27'5 8.9
2017-Sep-26 11:30N 70°21' E 019°26'0 0.6
2017-Sep-26 10:58N 70°21' E 019°27'0 0.7
2017-Sep-26 10:30N 70°21' E 019°28'1 1.0
2017-Sep-26 09:57N 70°21' E 019°29'1 1.6
2017-Sep-26 09:29N 70°21' E 019°31'2 3.0
2017-Sep-26 08:59N 70°20' E 019°35'0 0.8
2017-Sep-26 08:29N 70°20' E 019°35'0 1.0
2017-Sep-26 08:00N 70°20' E 019°36'0 0.5
2017-Sep-26 07:29N 70°20' E 019°35'1 1.9
2017-Sep-26 06:59N 70°20' E 019°37'2 3.7
2017-Sep-26 06:23N 70°17' E 019°36'3 8.1
2017-Sep-26 05:58N 70°15' E 019°29'1 0.0
2017-Sep-25 16:21N 70°15' E 019°30'2 6.1
2017-Sep-25 15:59N 70°17' E 019°32'10 1.3
2017-Sep-25 08:39N 70°24' E 019°49'0 0.4
2017-Sep-25 08:02N 70°24' E 019°49'0 0.4
2017-Sep-25 07:25N 70°24' E 019°50'0 0.4
2017-Sep-25 06:55N 70°24' E 019°50'2 2.9
2017-Sep-25 06:13N 70°22' E 019°46'415.9
2017-Sep-25 05:59N 70°19' E 019°40'6 0.5
2017-Sep-24 17:49N 70°15' E 019°30'0 0.0
2017-Sep-24 14:47N 70°14' E 019°30'4 0.4
2017-Sep-24 06:09N 70°11' E 019°31'211.6
2017-Sep-24 05:59N 70°13' E 019°29'  
2017-Sep-21 16:48N 70°15' E 019°30'1 1.9
2017-Sep-21 16:30N 70°14' E 019°29'4 0.6
2017-Sep-21 09:51N 70°17' E 019°35'410.2
2017-Sep-21 09:30N 70°14' E 019°30'0 0.7
2017-Sep-21 08:59N 70°15' E 019°30'  
2017-Sep-18 10:44N 70°15' E 019°30'0 0.0
2017-Sep-17 18:07N 70°15' E 019°30'1 5.5
2017-Sep-17 17:59N 70°14' E 019°28'1 1.4
2017-Sep-17 17:25N 70°14' E 019°26'0 1.0
2017-Sep-17 17:00N 70°15' E 019°25'2 3.4
2017-Sep-17 16:28N 70°16' E 019°27'0 0.7
2017-Sep-17 15:59N 70°17' E 019°28'2 3.6
2017-Sep-17 15:28N 70°15' E 019°29'1 0.1
2017-Sep-17 12:03N 70°14' E 019°30'0 6.8
2017-Sep-17 12:00N 70°14' E 019°29'2 3.7
2017-Sep-17 11:26N 70°16' E 019°30'  
Track history (hours):
 
Tides and Currents Weather Stations Pressure Air Temp Water Temp Dewpoint Dewpoint Depression Visibility Wind Speed Wind Dir Waves Ship Positions

Th8

Last reported at 2017-Sep-27 11:21 UTC. Time now 2017-Oct-22 22:54 UTC.
Position N 70°15' E 019°30'.
Warning: this ship's position is 25 days out of date.

Length 7 m.

Type: Fishing. MMSI: 258087570.

Date/timePositionNaut miles runAvg speedWind from/ knotsBaromVisibWave heightAir tempDewpointWater temp
2017-Sep-27 11:21N 70°15' E 019°30'0 0.0
2017-Sep-27 10:59N 70°15' E 019°30'0 0.0
2017-Sep-27 10:28N 70°15' E 019°30'0 0.0
2017-Sep-27 09:59N 70°15' E 019°30'0 0.0
2017-Sep-27 09:19N 70°15' E 019°30'0 0.0
2017-Sep-27 08:52N 70°15' E 019°30'0 0.0
2017-Sep-27 08:28N 70°15' E 019°30'0 0.0
2017-Sep-27 07:51N 70°15' E 019°30'0 0.0
2017-Sep-27 07:29N 70°15' E 019°30'0 0.0
2017-Sep-27 06:58N 70°15' E 019°30'0 0.0
2017-Sep-27 06:22N 70°15' E 019°30'0 0.0
2017-Sep-27 05:59N 70°15' E 019°30'0 0.0
2017-Sep-27 05:25N 70°15' E 019°30'0 0.0
2017-Sep-27 04:57N 70°15' E 019°30'0 0.0
2017-Sep-27 04:25N 70°15' E 019°30'0 0.0
2017-Sep-27 03:51N 70°15' E 019°30'0 0.0
2017-Sep-27 03:28N 70°15' E 019°30'0 0.0
2017-Sep-27 02:59N 70°15' E 019°30'0 0.0
2017-Sep-27 02:30N 70°15' E 019°30'0 0.0
2017-Sep-27 01:58N 70°15' E 019°30'0 0.0
2017-Sep-27 01:27N 70°15' E 019°30'0 0.0
2017-Sep-27 00:47N 70°15' E 019°30'0 0.0
2017-Sep-27 00:30N 70°15' E 019°30'0 0.0
2017-Sep-26 23:59N 70°15' E 019°30'0 0.0
2017-Sep-26 23:26N 70°15' E 019°30'0 0.0
2017-Sep-26 22:49N 70°15' E 019°30'0 0.0
2017-Sep-26 22:25N 70°15' E 019°30'0 0.0
2017-Sep-26 21:57N 70°15' E 019°30'0 0.0
2017-Sep-26 21:29N 70°15' E 019°30'0 0.0
2017-Sep-26 20:56N 70°15' E 019°30'0 0.0
2017-Sep-26 20:20N 70°15' E 019°30'0 0.0
2017-Sep-26 20:00N 70°15' E 019°30'0 0.0
2017-Sep-26 19:24N 70°15' E 019°30'0 0.0
2017-Sep-26 18:59N 70°15' E 019°30'0 0.0
2017-Sep-26 18:15N 70°15' E 019°30'0 0.0
2017-Sep-26 18:01N 70°15' E 019°30'0 0.0
2017-Sep-26 17:23N 70°15' E 019°30'0 0.0
2017-Sep-26 16:59N 70°15' E 019°30'0 0.0
2017-Sep-26 16:26N 70°15' E 019°30'0 0.0
2017-Sep-26 12:48N 70°15' E 019°30'0 0.4
2017-Sep-26 12:26N 70°15' E 019°30'2 5.5
2017-Sep-26 12:00N 70°17' E 019°27'5 8.9
2017-Sep-26 11:30N 70°21' E 019°26'0 0.6
2017-Sep-26 10:58N 70°21' E 019°27'0 0.7
2017-Sep-26 10:30N 70°21' E 019°28'1 1.0
2017-Sep-26 09:57N 70°21' E 019°29'1 1.6
2017-Sep-26 09:29N 70°21' E 019°31'2 3.0
2017-Sep-26 08:59N 70°20' E 019°35'0 0.8
2017-Sep-26 08:29N 70°20' E 019°35'0 1.0
2017-Sep-26 08:00N 70°20' E 019°36'0 0.5
2017-Sep-26 07:29N 70°20' E 019°35'1 1.9
2017-Sep-26 06:59N 70°20' E 019°37'2 3.7
2017-Sep-26 06:23N 70°17' E 019°36'3 8.1
2017-Sep-26 05:58N 70°15' E 019°29'1 0.0
2017-Sep-25 16:21N 70°15' E 019°30'2 6.1
2017-Sep-25 15:59N 70°17' E 019°32'10 1.3
2017-Sep-25 08:39N 70°24' E 019°49'0 0.4
2017-Sep-25 08:02N 70°24' E 019°49'0 0.4
2017-Sep-25 07:25N 70°24' E 019°50'0 0.4
2017-Sep-25 06:55N 70°24' E 019°50'2 2.9
2017-Sep-25 06:13N 70°22' E 019°46'415.9
2017-Sep-25 05:59N 70°19' E 019°40'6 0.5
2017-Sep-24 17:49N 70°15' E 019°30'0 0.0
2017-Sep-24 14:47N 70°14' E 019°30'4 0.4
2017-Sep-24 06:09N 70°11' E 019°31'211.6
2017-Sep-24 05:59N 70°13' E 019°29'  
2017-Sep-21 16:48N 70°15' E 019°30'1 1.9
2017-Sep-21 16:30N 70°14' E 019°29'4 0.6
2017-Sep-21 09:51N 70°17' E 019°35'410.2
2017-Sep-21 09:30N 70°14' E 019°30'0 0.7
2017-Sep-21 08:59N 70°15' E 019°30'  
2017-Sep-18 10:44N 70°15' E 019°30'0 0.0
2017-Sep-17 18:07N 70°15' E 019°30'1 5.5
2017-Sep-17 17:59N 70°14' E 019°28'1 1.4
2017-Sep-17 17:25N 70°14' E 019°26'0 1.0
2017-Sep-17 17:00N 70°15' E 019°25'2 3.4
2017-Sep-17 16:28N 70°16' E 019°27'0 0.7
2017-Sep-17 15:59N 70°17' E 019°28'2 3.6
2017-Sep-17 15:28N 70°15' E 019°29'1 0.1
2017-Sep-17 12:03N 70°14' E 019°30'0 6.8
2017-Sep-17 12:00N 70°14' E 019°29'2 3.7
2017-Sep-17 11:26N 70°16' E 019°30'  

Dump ship's entire track history